createdAt,value
2019-03-19T00:04:17.714Z,7.40
2019-03-19T00:09:12.331Z,5.80
2019-03-19T00:14:06.977Z,8.23
2019-03-19T00:19:01.584Z,7.63
2019-03-19T00:23:56.165Z,8.47
2019-03-19T00:28:50.768Z,8.77
2019-03-19T00:33:45.339Z,9.07
2019-03-19T00:38:39.951Z,10.30
2019-03-19T00:43:34.529Z,13.27
2019-03-19T00:48:29.148Z,16.40
2019-03-19T00:53:23.793Z,15.47
2019-03-19T00:58:18.398Z,13.57
2019-03-19T01:03:13.059Z,15.43
2019-03-19T01:08:07.746Z,15.10
2019-03-19T01:13:02.325Z,16.97
2019-03-19T01:17:56.959Z,16.50
2019-03-19T01:22:51.565Z,18.97
2019-03-19T01:27:46.174Z,46.93
2019-03-19T01:32:40.757Z,32.17
2019-03-19T01:37:35.359Z,54.17
2019-03-19T01:42:29.943Z,46.87
2019-03-19T01:47:24.622Z,37.43
2019-03-19T01:52:19.210Z,24.83
2019-03-19T01:57:13.808Z,110.63
2019-03-19T02:02:08.881Z,169.33
2019-03-19T02:07:03.480Z,269.13
2019-03-19T02:11:58.087Z,302.73
2019-03-19T02:16:52.659Z,434.90
2019-03-19T02:21:47.303Z,242.53
2019-03-19T02:26:41.900Z,387.67
2019-03-19T02:31:36.511Z,253.67
2019-03-19T02:36:31.107Z,180.67
2019-03-19T02:41:25.706Z,369.50
2019-03-19T02:46:20.292Z,102.03
2019-03-19T02:51:14.911Z,73.93
2019-03-19T02:56:09.504Z,185.10
2019-03-19T03:01:04.255Z,192.37
2019-03-19T03:05:58.848Z,69.73
2019-03-19T03:10:53.430Z,179.20
2019-03-19T03:15:48.089Z,83.03
2019-03-19T03:20:42.776Z,180.70
2019-03-19T03:25:37.359Z,53.43
2019-03-19T03:30:31.982Z,52.47
2019-03-19T03:35:26.559Z,77.93
2019-03-19T03:40:21.708Z,177.93
2019-03-19T03:45:19.281Z,123.60
2019-03-19T03:50:16.212Z,166.67
2019-03-19T03:55:16.173Z,47.13
2019-03-19T04:00:23.540Z,65.00
2019-03-19T04:05:18.312Z,105.00
2019-03-19T04:10:17.775Z,52.57
2019-03-19T04:15:15.619Z,100.00
2019-03-19T04:20:15.774Z,31.70
2019-03-19T04:25:11.988Z,221.47
2019-03-19T04:30:15.312Z,259.53
2019-03-19T04:35:10.100Z,200.50
2019-03-19T04:40:07.855Z,91.53
2019-03-19T04:45:02.448Z,199.00
2019-03-19T04:49:57.062Z,79.50
2019-03-19T04:54:51.640Z,216.17
2019-03-19T04:59:46.246Z,131.50
2019-03-19T05:04:40.853Z,99.07
2019-03-19T05:09:35.460Z,151.20
2019-03-19T05:14:30.081Z,88.80
2019-03-19T05:19:24.687Z,52.43
2019-03-19T05:24:19.271Z,90.73
2019-03-19T05:29:13.895Z,51.93
2019-03-19T05:34:08.481Z,98.33
2019-03-19T05:39:04.784Z,43.70
2019-03-19T05:43:59.364Z,32.23
2019-03-19T05:48:59.829Z,52.63
2019-03-19T05:53:54.714Z,38.97
2019-03-19T05:58:49.331Z,65.07
2019-03-19T06:03:43.924Z,33.10
2019-03-19T06:08:38.535Z,42.47
2019-03-19T06:13:33.141Z,50.30
2019-03-19T06:18:35.189Z,80.87
2019-03-19T06:23:24.054Z,26.13
2019-03-19T06:28:18.663Z,19.80
2019-03-19T06:33:13.319Z,33.10
2019-03-19T06:38:08.027Z,33.67
2019-03-19T06:43:02.612Z,30.90
2019-03-19T06:47:57.242Z,61.83
2019-03-19T06:52:51.911Z,42.20
2019-03-19T06:57:47.282Z,109.13
2019-03-19T07:02:41.906Z,53.63
2019-03-19T07:07:36.526Z,58.63
2019-03-19T07:12:31.106Z,71.43
2019-03-19T07:17:25.754Z,46.87
2019-03-19T07:22:20.362Z,95.73
2019-03-19T07:27:15.176Z,67.57
2019-03-19T07:32:09.843Z,39.47
2019-03-19T07:37:04.973Z,37.97
2019-03-19T07:42:05.604Z,37.63
2019-03-19T07:47:05.784Z,78.30
2019-03-19T07:52:01.031Z,109.77
2019-03-19T07:56:56.106Z,38.07
2019-03-19T08:01:57.898Z,40.90
2019-03-19T08:06:57.224Z,48.90
2019-03-19T08:12:02.370Z,32.13
2019-03-19T08:17:03.490Z,27.43
2019-03-19T08:21:59.221Z,29.67
2019-03-19T08:26:53.898Z,24.83
2019-03-19T08:31:53.113Z,23.10
2019-03-19T08:36:47.726Z,24.63
2019-03-19T08:41:42.458Z,27.53
2019-03-19T08:46:37.123Z,31.67
2019-03-19T08:51:31.743Z,30.67
2019-03-19T08:56:26.866Z,25.77
2019-03-19T09:01:24.766Z,24.10
2019-03-19T09:06:19.731Z,21.07
2019-03-19T09:11:15.528Z,22.50
2019-03-19T09:16:20.173Z,25.67
2019-03-19T09:21:13.068Z,22.03
2019-03-19T09:26:08.839Z,19.37
2019-03-19T09:31:03.464Z,19.40
2019-03-19T09:35:58.467Z,19.27
2019-03-19T09:40:53.803Z,19.13
2019-03-19T09:45:50.300Z,17.57
2019-03-19T09:50:44.937Z,19.10
2019-03-19T09:55:39.753Z,17.93
2019-03-19T10:00:34.554Z,16.80
2019-03-19T10:05:30.008Z,19.37
2019-03-19T10:10:26.447Z,21.77
2019-03-19T10:15:21.231Z,19.30
2019-03-19T10:20:27.029Z,20.90
2019-03-19T10:25:21.650Z,18.97
2019-03-19T10:30:27.917Z,21.57
2019-03-19T10:35:22.628Z,16.73
2019-03-19T10:40:23.438Z,14.77
2019-03-19T10:45:24.344Z,14.30
2019-03-19T10:50:23.077Z,16.33
2019-03-19T10:55:17.827Z,13.57
2019-03-19T11:00:24.638Z,13.67
2019-03-19T11:05:21.037Z,13.07
2019-03-19T11:10:17.235Z,14.87
2019-03-19T11:15:21.086Z,12.27
2019-03-19T11:20:18.633Z,10.70
2019-03-19T11:25:17.441Z,9.83
2019-03-19T11:30:18.644Z,11.07
2019-03-19T11:35:14.239Z,10.03
2019-03-19T11:40:13.481Z,9.90
2019-03-19T11:45:12.488Z,9.63
2019-03-19T11:50:14.639Z,8.97
2019-03-19T11:55:13.592Z,8.13
2019-03-19T12:00:26.733Z,5.87
2019-03-19T12:05:21.318Z,5.30
2019-03-19T12:10:16.189Z,8.07
2019-03-19T12:15:12.647Z,8.80
2019-03-19T12:20:16.268Z,12.03
2019-03-19T12:25:14.910Z,8.53
2019-03-19T12:30:23.723Z,3.97
2019-03-19T12:35:20.569Z,4.97
2019-03-19T12:40:19.521Z,10.23
2019-03-19T12:45:22.769Z,16.30
2019-03-19T12:50:26.344Z,13.67
2019-03-19T12:55:21.261Z,5.33
2019-03-19T13:00:34.614Z,3.67
2019-03-19T13:05:25.890Z,5.27
2019-03-19T13:10:24.130Z,7.03
2019-03-19T13:15:20.629Z,2.37
2019-03-19T13:20:17.019Z,2.87
2019-03-19T13:25:23.268Z,1.97
2019-03-19T13:30:27.090Z,8.13
2019-03-19T13:35:21.935Z,5.70
2019-03-19T13:40:18.782Z,1.40
2019-03-19T13:45:17.282Z,2.67
2019-03-19T13:50:30.714Z,4.23
2019-03-19T13:55:26.823Z,1.93
2019-03-19T14:00:23.895Z,2.77
2019-03-19T14:05:20.702Z,3.27
2019-03-19T14:10:21.258Z,1.37
2019-03-19T14:15:19.158Z,3.33
2019-03-19T14:20:16.803Z,2.20
2019-03-19T14:25:13.905Z,1.80
2019-03-19T14:30:19.211Z,14.70
2019-03-19T14:35:14.646Z,1.97
2019-03-19T14:40:23.897Z,2.63
2019-03-19T14:45:19.360Z,2.20
2019-03-19T14:50:17.234Z,20.37
2019-03-19T14:55:12.032Z,7.63
2019-03-19T15:00:16.551Z,7.30
2019-03-19T15:05:13.631Z,2.70
2019-03-19T15:10:18.832Z,2.30
2019-03-19T15:15:19.043Z,2.70
2019-03-19T15:20:22.947Z,2.03
2019-03-19T15:25:17.511Z,3.27
2019-03-19T15:30:18.575Z,2.73
2019-03-19T15:35:13.411Z,2.83
2019-03-19T15:40:14.221Z,6.47
2019-03-19T15:45:15.945Z,2.10
2019-03-19T15:50:16.213Z,2.87
2019-03-19T15:55:13.011Z,2.73
2019-03-19T16:00:17.823Z,4.13
2019-03-19T16:05:14.438Z,4.07
2019-03-19T16:10:18.305Z,1.97
2019-03-19T16:15:15.476Z,3.83
2019-03-19T16:20:15.993Z,3.50
2019-03-19T16:25:10.798Z,3.80
2019-03-19T16:30:10.898Z,2.60
2019-03-19T16:35:08.330Z,2.67
2019-03-19T16:40:02.903Z,6.40
2019-03-19T16:44:57.531Z,1.93
2019-03-19T16:49:52.106Z,2.33
2019-03-19T16:54:46.691Z,2.23
2019-03-19T16:59:45.055Z,2.70
2019-03-19T17:04:39.821Z,2.30
2019-03-19T17:09:34.429Z,2.67
2019-03-19T17:14:29.037Z,3.87
2019-03-19T17:19:23.625Z,4.90
2019-03-19T17:24:18.439Z,3.37
2019-03-19T17:29:13.109Z,3.00
2019-03-19T17:34:07.743Z,3.10
2019-03-19T17:39:02.329Z,2.77
2019-03-19T17:43:56.906Z,3.40
2019-03-19T17:48:52.355Z,4.87
2019-03-19T17:53:47.238Z,9.50
2019-03-19T17:58:41.840Z,7.87
2019-03-19T18:03:36.423Z,8.23
2019-03-19T18:08:30.995Z,5.47
2019-03-19T18:13:25.590Z,7.30
2019-03-19T18:18:20.157Z,8.20
2019-03-19T18:23:14.749Z,8.23
2019-03-19T18:28:09.343Z,9.57
2019-03-19T18:33:03.974Z,9.37
2019-03-19T18:37:58.520Z,6.27
2019-03-19T18:42:53.123Z,10.00
2019-03-19T18:47:47.776Z,5.67
2019-03-19T18:52:42.376Z,6.63
2019-03-19T18:57:36.958Z,7.97
2019-03-19T19:02:31.568Z,10.97
2019-03-19T19:07:26.151Z,25.03
2019-03-19T19:12:20.748Z,19.33
2019-03-19T19:17:15.344Z,22.93
2019-03-19T19:22:09.968Z,15.83
2019-03-19T19:27:04.506Z,8.90
2019-03-19T19:31:59.127Z,9.87
2019-03-19T19:36:53.698Z,6.57
2019-03-19T19:41:48.294Z,4.77
2019-03-19T19:46:42.871Z,5.27
2019-03-19T19:51:37.484Z,8.17
2019-03-19T19:56:32.070Z,8.40
2019-03-19T20:01:26.691Z,11.67
2019-03-19T20:06:21.268Z,19.90
2019-03-19T20:11:15.883Z,10.53
2019-03-19T20:16:10.451Z,10.30
2019-03-19T20:21:05.113Z,16.97
2019-03-19T20:25:59.697Z,12.67
2019-03-19T20:30:54.294Z,9.37
2019-03-19T20:35:49.757Z,9.17
2019-03-19T20:40:44.486Z,11.60
2019-03-19T20:45:39.072Z,7.80
2019-03-19T20:50:39.520Z,6.53
2019-03-19T20:55:34.112Z,7.73
2019-03-19T21:00:28.703Z,12.13
2019-03-19T21:05:23.355Z,14.00
2019-03-19T21:10:20.830Z,11.50
2019-03-19T21:15:31.802Z,11.30
2019-03-19T21:20:26.522Z,12.67
2019-03-19T21:25:21.197Z,11.87
2019-03-19T21:30:21.786Z,9.73
2019-03-19T21:35:21.578Z,8.57
2019-03-19T21:40:16.857Z,6.63
2019-03-19T21:45:22.878Z,7.40
2019-03-19T21:50:19.668Z,7.37
2019-03-19T21:55:14.982Z,7.03
2019-03-19T22:00:19.942Z,7.53
2019-03-19T22:05:14.715Z,6.20
2019-03-19T22:10:18.144Z,9.40
2019-03-19T22:15:18.409Z,9.03
2019-03-19T22:20:13.801Z,7.37
2019-03-19T22:25:12.443Z,11.90
2019-03-19T22:30:11.616Z,11.87
2019-03-19T22:35:07.894Z,12.47
2019-03-19T22:40:02.482Z,7.67
2019-03-19T22:44:57.076Z,6.27
2019-03-19T22:49:51.688Z,10.07
2019-03-19T22:54:46.253Z,9.50
2019-03-19T22:59:40.848Z,7.37
2019-03-19T23:04:35.420Z,11.43
2019-03-19T23:09:30.085Z,6.63
2019-03-19T23:14:24.664Z,7.47
2019-03-19T23:19:19.255Z,5.03
2019-03-19T23:24:13.830Z,7.03
2019-03-19T23:29:08.421Z,5.07
2019-03-19T23:34:03.007Z,5.10
2019-03-19T23:38:57.611Z,7.63
2019-03-19T23:43:52.194Z,6.47
2019-03-19T23:48:46.788Z,4.10
2019-03-19T23:53:41.358Z,7.53
2019-03-19T23:58:35.958Z,5.73
